createdAt,value
2023-03-16T00:01:50.411Z,69.36
2023-03-16T00:04:24.582Z,69.30
2023-03-16T00:06:59.055Z,69.23
2023-03-16T00:09:35.336Z,69.22
2023-03-16T00:12:15.395Z,69.28
2023-03-16T00:14:49.648Z,69.20
2023-03-16T00:17:39.692Z,69.31
2023-03-16T00:20:23.795Z,69.33
2023-03-16T00:22:57.729Z,69.34
2023-03-16T00:25:31.793Z,69.39
2023-03-16T00:28:08.941Z,69.42
2023-03-16T00:30:39.641Z,69.44
2023-03-16T00:33:24.572Z,69.43
2023-03-16T00:36:07.909Z,69.44
2023-03-16T00:38:54.710Z,69.47
2023-03-16T00:41:37.714Z,69.44
2023-03-16T00:44:09.296Z,69.63
2023-03-16T00:46:43.059Z,69.70
2023-03-16T00:49:25.083Z,69.71
2023-03-16T00:51:53.770Z,69.77
2023-03-16T00:54:40.345Z,69.75
2023-03-16T00:57:31.025Z,69.68
2023-03-16T01:00:08.942Z,69.83
2023-03-16T01:02:41.774Z,69.92
2023-03-16T01:05:21.575Z,69.92
2023-03-16T01:07:54.801Z,69.91
2023-03-16T01:10:36.999Z,69.94
2023-03-16T01:13:07.894Z,70.00
2023-03-16T01:15:45.720Z,70.02
2023-03-16T01:18:24.243Z,70.05
2023-03-16T01:21:11.265Z,70.12
2023-03-16T01:23:50.169Z,70.18
2023-03-16T01:26:26.883Z,70.19
2023-03-16T01:29:04.100Z,70.28
2023-03-16T01:31:48.009Z,70.31
2023-03-16T01:34:27.537Z,70.38
2023-03-16T01:37:11.643Z,70.34
2023-03-16T01:40:14.188Z,70.46
2023-03-16T01:43:06.966Z,70.59
2023-03-16T01:46:07.382Z,70.76
2023-03-16T01:49:09.799Z,70.79
2023-03-16T01:51:51.470Z,70.79
2023-03-16T01:54:27.649Z,70.78
2023-03-16T01:57:04.356Z,70.86
2023-03-16T01:59:46.242Z,70.78
2023-03-16T02:02:27.719Z,70.70
2023-03-16T02:05:35.243Z,70.48
2023-03-16T02:08:09.980Z,70.49
2023-03-16T02:10:46.225Z,70.45
2023-03-16T02:13:23.298Z,70.38
2023-03-16T02:16:06.149Z,70.35
2023-03-16T02:18:42.882Z,70.30
2023-03-16T02:21:16.480Z,70.40
2023-03-16T02:23:50.374Z,70.42
2023-03-16T02:26:53.435Z,70.40
2023-03-16T02:30:08.536Z,70.44
2023-03-16T02:32:53.527Z,70.52
2023-03-16T02:35:26.082Z,70.56
2023-03-16T02:38:10.500Z,70.70
2023-03-16T02:40:59.950Z,70.77
2023-03-16T02:43:50.384Z,70.93
2023-03-16T02:46:37.908Z,70.97
2023-03-16T02:49:25.682Z,71.06
2023-03-16T02:52:09.494Z,71.08
2023-03-16T02:54:43.536Z,71.17
2023-03-16T02:57:27.272Z,71.13
2023-03-16T03:00:21.706Z,71.11
2023-03-16T03:02:54.835Z,71.06
2023-03-16T03:05:32.702Z,70.86
2023-03-16T03:08:09.755Z,70.86
2023-03-16T03:10:39.573Z,70.88
2023-03-16T03:13:15.499Z,70.81
2023-03-16T03:15:54.122Z,70.79
2023-03-16T03:18:31.150Z,70.58
2023-03-16T03:21:04.001Z,70.52
2023-03-16T03:23:37.999Z,70.62
2023-03-16T03:26:21.350Z,70.55
2023-03-16T03:29:13.854Z,70.51
2023-03-16T03:31:51.580Z,70.48
2023-03-16T03:34:31.191Z,70.37
2023-03-16T03:37:09.266Z,70.39
2023-03-16T03:39:44.752Z,70.21
2023-03-16T03:42:28.128Z,70.07
2023-03-16T03:45:12.487Z,70.07
2023-03-16T03:47:48.406Z,70.02
2023-03-16T03:50:24.935Z,70.02
2023-03-16T03:53:13.346Z,69.94
2023-03-16T03:56:10.705Z,69.91
2023-03-16T03:58:54.945Z,69.86
2023-03-16T04:01:40.192Z,69.78
2023-03-16T04:04:16.442Z,69.89
2023-03-16T04:06:51.291Z,69.90
2023-03-16T04:09:23.454Z,69.90
2023-03-16T04:12:01.635Z,70.02
2023-03-16T04:14:35.695Z,70.12
2023-03-16T04:17:14.006Z,70.18
2023-03-16T04:19:48.866Z,70.26
2023-03-16T04:22:23.519Z,70.32
2023-03-16T04:24:58.081Z,70.31
2023-03-16T04:27:36.266Z,70.34
2023-03-16T04:30:14.046Z,70.45
2023-03-16T04:32:52.070Z,70.47
2023-03-16T04:35:27.216Z,70.39
2023-03-16T04:38:02.749Z,70.44
2023-03-16T04:40:44.886Z,70.58
2023-03-16T04:43:20.657Z,70.74
2023-03-16T04:45:52.455Z,70.73
2023-03-16T04:48:26.700Z,70.78
2023-03-16T04:51:03.327Z,70.92
2023-03-16T04:53:48.154Z,70.88
2023-03-16T04:56:25.395Z,70.94
2023-03-16T04:59:05.789Z,70.90
2023-03-16T05:01:45.970Z,71.01
2023-03-16T05:04:19.962Z,70.99
2023-03-16T05:07:00.074Z,70.96
2023-03-16T05:09:35.947Z,71.04
2023-03-16T05:12:08.850Z,70.97
2023-03-16T05:14:41.138Z,71.06
2023-03-16T05:17:20.019Z,71.11
2023-03-16T05:19:52.149Z,71.24
2023-03-16T05:22:33.392Z,71.30
2023-03-16T05:25:22.062Z,71.30
2023-03-16T05:27:56.686Z,71.30
2023-03-16T05:30:40.302Z,71.33
2023-03-16T05:33:12.964Z,71.40
2023-03-16T05:35:43.915Z,71.47
2023-03-16T05:38:18.097Z,71.48
2023-03-16T05:41:06.383Z,71.61
2023-03-16T05:44:10.409Z,71.66
2023-03-16T05:49:57.114Z,71.58
2023-03-16T05:52:44.906Z,71.51
2023-03-16T05:55:31.079Z,71.50
2023-03-16T05:58:17.770Z,71.63
2023-03-16T06:00:47.145Z,71.44
2023-03-16T06:03:30.739Z,71.55
2023-03-16T06:06:08.408Z,71.57
2023-03-16T06:08:50.534Z,71.45
2023-03-16T06:11:36.761Z,71.35
2023-03-16T06:14:08.783Z,71.18
2023-03-16T06:16:51.126Z,71.24
2023-03-16T06:19:31.667Z,71.32
2023-03-16T06:22:17.161Z,71.22
2023-03-16T06:24:49.213Z,71.22
2023-03-16T06:27:21.880Z,71.06
2023-03-16T06:30:16.526Z,71.04
2023-03-16T06:32:48.722Z,71.41
2023-03-16T06:35:18.085Z,71.52
2023-03-16T06:38:01.822Z,71.41
2023-03-16T06:41:01.891Z,71.08
2023-03-16T06:43:51.601Z,70.73
2023-03-16T06:46:24.709Z,70.53
2023-03-16T06:49:02.766Z,70.40
2023-03-16T06:51:39.635Z,70.60
2023-03-16T06:54:36.148Z,70.82
2023-03-16T06:57:12.219Z,70.99
2023-03-16T06:59:47.059Z,70.81
2023-03-16T07:02:27.368Z,69.86
2023-03-16T07:05:05.488Z,70.41
2023-03-16T07:07:43.131Z,71.45
2023-03-16T07:10:20.167Z,70.89
2023-03-16T07:12:50.275Z,69.67
2023-03-16T07:15:27.660Z,68.78
2023-03-16T07:18:09.641Z,67.28
2023-03-16T07:20:44.165Z,66.10
2023-03-16T07:23:15.270Z,65.21
2023-03-16T07:25:48.407Z,64.18
2023-03-16T07:28:25.903Z,62.54
2023-03-16T07:31:17.376Z,61.72
2023-03-16T07:33:59.988Z,61.39
2023-03-16T07:36:38.288Z,60.80
2023-03-16T07:39:17.281Z,60.71
2023-03-16T07:42:04.244Z,59.02
2023-03-16T07:45:15.415Z,58.33
2023-03-16T07:48:14.162Z,57.14
2023-03-16T07:50:56.103Z,56.20
2023-03-16T07:53:38.516Z,55.06
2023-03-16T07:56:27.216Z,54.60
2023-03-16T07:59:05.728Z,53.93
2023-03-16T08:01:44.269Z,52.99
2023-03-16T08:04:42.419Z,52.56
2023-03-16T08:07:29.187Z,51.50
2023-03-16T08:10:19.222Z,50.55
2023-03-16T08:13:10.821Z,50.67
2023-03-16T08:16:11.805Z,50.31
2023-03-16T08:18:44.786Z,49.67
2023-03-16T08:21:17.836Z,50.00
2023-03-16T08:23:54.089Z,49.33
2023-03-16T08:26:31.311Z,48.62
2023-03-16T08:29:03.301Z,47.90
2023-03-16T08:31:42.235Z,47.00
2023-03-16T08:34:24.154Z,46.53
2023-03-16T08:36:56.390Z,46.21
2023-03-16T08:39:27.565Z,45.23
2023-03-16T08:42:01.431Z,45.15
2023-03-16T08:44:39.625Z,43.86
2023-03-16T08:47:13.725Z,43.39
2023-03-16T08:49:46.924Z,44.44
2023-03-16T08:52:54.814Z,44.60
2023-03-16T08:55:50.461Z,43.76
2023-03-16T08:58:33.043Z,42.44
2023-03-16T09:01:05.188Z,42.11
2023-03-16T09:03:56.648Z,41.71
2023-03-16T09:06:41.398Z,41.02
2023-03-16T09:09:27.800Z,41.64
2023-03-16T09:11:59.411Z,42.19
2023-03-16T09:14:31.811Z,43.07
2023-03-16T09:17:02.518Z,43.70
2023-03-16T09:19:50.098Z,43.82
2023-03-16T09:22:26.936Z,44.64
2023-03-16T09:24:58.399Z,44.91
2023-03-16T09:27:36.737Z,44.18
2023-03-16T09:30:11.706Z,44.27
2023-03-16T09:32:58.483Z,44.58
2023-03-16T09:35:49.809Z,44.86
2023-03-16T09:38:44.362Z,45.08
2023-03-16T09:42:26.105Z,44.20
2023-03-16T09:46:16.089Z,44.69
2023-03-16T09:48:48.315Z,44.69
2023-03-16T09:52:10.460Z,44.86
2023-03-16T09:55:56.492Z,44.41
2023-03-16T09:58:59.321Z,45.17
2023-03-16T10:02:07.804Z,44.83
2023-03-16T10:05:21.377Z,44.19
2023-03-16T10:08:28.178Z,45.10
2023-03-16T10:11:36.248Z,45.06
2023-03-16T10:14:55.331Z,44.54
2023-03-16T10:18:13.331Z,43.19
2023-03-16T10:20:57.590Z,42.69
2023-03-16T10:23:44.997Z,43.16
2023-03-16T10:29:37.484Z,44.03
2023-03-16T10:32:34.060Z,44.20
2023-03-16T10:35:57.007Z,44.77
2023-03-16T10:39:22.590Z,45.85
2023-03-16T10:42:21.993Z,45.25
2023-03-16T10:45:04.052Z,44.25
2023-03-16T10:47:43.127Z,44.64
2023-03-16T10:50:35.941Z,44.70
2023-03-16T10:53:39.136Z,44.34
2023-03-16T10:59:41.158Z,43.62
2023-03-16T11:02:41.708Z,42.54
2023-03-16T11:05:32.491Z,42.85
2023-03-16T11:08:15.907Z,42.13
2023-03-16T11:10:59.791Z,42.09
2023-03-16T11:13:53.376Z,43.16
2023-03-16T11:17:03.308Z,43.44
2023-03-16T11:20:14.785Z,42.59
2023-03-16T11:22:55.224Z,42.65
2023-03-16T11:25:48.516Z,42.91
2023-03-16T11:28:30.871Z,43.22
2023-03-16T11:31:42.508Z,43.46
2023-03-16T11:34:23.142Z,43.29
2023-03-16T11:37:18.340Z,42.88
2023-03-16T11:40:32.858Z,42.75
2023-03-16T11:43:21.748Z,43.23
2023-03-16T11:46:17.880Z,43.50
2023-03-16T11:49:38.836Z,43.48
2023-03-16T11:52:49.478Z,43.49
2023-03-16T11:55:41.656Z,43.04
2023-03-16T11:58:42.059Z,43.23
2023-03-16T12:01:58.177Z,43.50
2023-03-16T12:04:50.514Z,44.03
2023-03-16T12:07:39.554Z,44.41
2023-03-16T12:10:32.470Z,44.48
2023-03-16T12:13:17.318Z,44.80
2023-03-16T12:16:13.955Z,44.79
2023-03-16T12:19:34.314Z,44.54
2023-03-16T12:22:44.152Z,44.63
2023-03-16T12:25:51.279Z,44.64
2023-03-16T12:28:31.908Z,44.67
2023-03-16T12:31:22.501Z,44.51
2023-03-16T12:34:16.245Z,44.05
2023-03-16T12:37:20.850Z,44.00
2023-03-16T12:40:31.214Z,44.06
2023-03-16T12:43:39.393Z,43.96
2023-03-16T12:46:58.598Z,44.18
2023-03-16T12:49:39.122Z,44.28
2023-03-16T12:52:14.861Z,43.90
2023-03-16T12:55:25.814Z,43.76
2023-03-16T12:58:14.499Z,43.44
2023-03-16T13:01:04.958Z,43.79
2023-03-16T13:03:39.198Z,43.62
2023-03-16T13:06:29.796Z,43.33
2023-03-16T13:09:14.184Z,43.27
2023-03-16T13:12:48.869Z,43.25
2023-03-16T13:16:02.569Z,43.12
2023-03-16T13:19:51.804Z,42.97
2023-03-16T13:23:14.386Z,42.92
2023-03-16T13:26:17.858Z,42.70
2023-03-16T13:29:44.340Z,42.61
2023-03-16T13:37:14.630Z,42.78
2023-03-16T13:41:17.551Z,43.06
2023-03-16T13:43:50.645Z,42.61
2023-03-16T13:54:01.810Z,42.40
2023-03-16T13:57:14.436Z,42.27
2023-03-16T14:00:52.229Z,42.06
2023-03-16T14:29:10.270Z,42.58
2023-03-16T15:08:49.063Z,43.28
2023-03-16T15:11:57.351Z,43.23
2023-03-16T15:14:54.981Z,43.24
2023-03-16T15:17:54.187Z,43.28
2023-03-16T15:20:46.098Z,43.29
2023-03-16T15:23:33.187Z,43.06
2023-03-16T15:26:11.354Z,42.97
2023-03-16T15:28:45.635Z,42.98
2023-03-16T15:31:21.122Z,42.90
2023-03-16T15:33:57.238Z,42.73
2023-03-16T15:36:28.985Z,42.62
2023-03-16T15:39:03.531Z,42.50
2023-03-16T15:41:46.756Z,42.60
2023-03-16T15:44:26.004Z,42.66
2023-03-16T15:46:57.313Z,42.76
2023-03-16T15:49:47.269Z,42.89
2023-03-16T15:52:39.890Z,43.14
2023-03-16T15:55:36.394Z,43.36
2023-03-16T15:58:26.996Z,43.55
2023-03-16T16:01:03.254Z,43.61
2023-03-16T16:03:34.581Z,43.82
2023-03-16T16:06:13.976Z,44.01
2023-03-16T16:08:48.916Z,44.10
2023-03-16T16:11:26.137Z,44.30
2023-03-16T16:14:07.057Z,44.37
2023-03-16T16:16:59.273Z,44.48
2023-03-16T16:19:38.348Z,44.77
2023-03-16T16:22:13.836Z,44.85
2023-03-16T16:24:55.188Z,45.03
2023-03-16T16:27:28.995Z,45.15
2023-03-16T16:33:31.773Z,45.51
2023-03-16T16:36:29.193Z,45.73
2023-03-16T16:39:10.047Z,45.73
2023-03-16T16:42:02.233Z,45.97
2023-03-16T16:44:40.273Z,46.03
2023-03-16T16:47:23.281Z,46.15
2023-03-16T16:50:31.329Z,46.31
2023-03-16T16:53:24.886Z,46.46
2023-03-16T16:56:00.124Z,46.50
2023-03-16T16:58:47.532Z,46.67
2023-03-16T17:01:53.153Z,46.73
2023-03-16T17:08:46.343Z,47.23
2023-03-16T17:12:34.136Z,47.51
2023-03-16T17:16:19.570Z,47.82
2023-03-16T17:23:59.615Z,48.31
2023-03-16T17:27:13.659Z,48.42
2023-03-16T17:30:16.499Z,48.73
2023-03-16T17:33:05.863Z,49.03
2023-03-16T17:36:21.041Z,49.15
2023-03-16T17:39:36.865Z,49.26
2023-03-16T17:42:51.251Z,49.37
2023-03-16T17:45:37.123Z,49.54
2023-03-16T17:49:11.546Z,49.69
2023-03-16T17:52:38.746Z,49.99
2023-03-16T17:55:20.960Z,50.22
2023-03-16T17:58:35.198Z,50.37
2023-03-16T18:01:39.309Z,50.61
2023-03-16T18:05:07.184Z,50.90
2023-03-16T18:07:48.988Z,51.20
2023-03-16T18:11:09.510Z,51.37
2023-03-16T18:18:19.426Z,51.57
2023-03-16T18:25:40.732Z,52.39
2023-03-16T18:28:27.738Z,52.59
2023-03-16T18:31:12.393Z,52.67
2023-03-16T18:34:01.288Z,52.68
2023-03-16T18:36:48.561Z,52.87
2023-03-16T18:39:27.479Z,53.28
2023-03-16T18:42:04.726Z,53.54
2023-03-16T18:44:53.795Z,53.89
2023-03-16T18:48:05.639Z,54.27
2023-03-16T18:50:54.801Z,54.47
2023-03-16T18:54:02.861Z,54.59
2023-03-16T19:00:35.570Z,55.22
2023-03-16T19:03:46.924Z,55.40
2023-03-16T19:06:44.010Z,55.59
2023-03-16T19:09:55.452Z,55.64
2023-03-16T19:16:26.485Z,56.30
2023-03-16T19:19:20.038Z,56.18
2023-03-16T19:22:44.988Z,56.37
2023-03-16T19:25:34.649Z,56.54
2023-03-16T19:28:33.648Z,56.74
2023-03-16T19:31:49.906Z,56.86
2023-03-16T19:34:30.510Z,57.03
2023-03-16T19:37:44.794Z,57.37
2023-03-16T19:41:26.825Z,57.47
2023-03-16T19:45:01.793Z,57.64
2023-03-16T19:48:25.302Z,57.41
2023-03-16T19:51:36.846Z,57.59
2023-03-16T19:54:44.683Z,57.60
2023-03-16T19:57:23.317Z,57.80
2023-03-16T19:59:59.751Z,58.10
2023-03-16T20:02:44.528Z,58.08
2023-03-16T20:05:20.953Z,58.18
2023-03-16T20:08:03.421Z,58.04
2023-03-16T20:10:36.234Z,58.26
2023-03-16T20:13:07.133Z,58.38
2023-03-16T20:15:36.988Z,58.54
2023-03-16T20:18:16.216Z,58.51
2023-03-16T20:20:45.660Z,58.41
2023-03-16T20:23:30.311Z,58.54
2023-03-16T20:26:03.044Z,58.52
2023-03-16T20:28:43.868Z,58.54
2023-03-16T20:31:29.596Z,58.58
2023-03-16T20:33:58.880Z,58.73
2023-03-16T20:36:27.953Z,58.98
2023-03-16T20:39:03.915Z,58.95
2023-03-16T20:41:39.570Z,58.92
2023-03-16T20:44:26.294Z,59.02
2023-03-16T20:47:01.276Z,59.26
2023-03-16T20:49:37.999Z,59.37
2023-03-16T20:52:30.443Z,59.23
2023-03-16T20:55:06.201Z,59.43
2023-03-16T20:57:46.614Z,59.49
2023-03-16T21:00:30.728Z,59.53
2023-03-16T21:03:05.410Z,59.57
2023-03-16T21:05:41.449Z,59.73
2023-03-16T21:08:09.629Z,59.92
2023-03-16T21:10:43.231Z,59.78
2023-03-16T21:13:41.676Z,59.99
2023-03-16T21:16:26.660Z,60.24
2023-03-16T21:19:11.269Z,60.20
2023-03-16T21:22:07.122Z,60.32
2023-03-16T21:24:49.081Z,60.41
2023-03-16T21:27:30.626Z,60.80
2023-03-16T21:30:28.935Z,61.14
2023-03-16T21:33:10.188Z,61.10
2023-03-16T21:35:46.148Z,61.22
2023-03-16T21:38:22.571Z,61.17
2023-03-16T21:40:59.256Z,61.21
2023-03-16T21:43:31.352Z,61.15
2023-03-16T21:46:00.363Z,61.36
2023-03-16T21:48:44.216Z,61.49
2023-03-16T21:51:33.893Z,61.68
2023-03-16T21:54:09.085Z,61.86
2023-03-16T21:56:43.728Z,62.05
2023-03-16T21:59:15.882Z,62.26
2023-03-16T22:02:01.254Z,62.26
2023-03-16T22:04:34.804Z,62.32
2023-03-16T22:07:11.722Z,62.53
2023-03-16T22:09:51.369Z,62.48
2023-03-16T22:12:22.948Z,62.59
2023-03-16T22:15:06.329Z,62.64
2023-03-16T22:17:58.264Z,62.82
2023-03-16T22:20:32.806Z,62.72
2023-03-16T22:23:08.749Z,62.77
2023-03-16T22:25:49.570Z,62.88
2023-03-16T22:28:34.325Z,62.86
2023-03-16T22:31:16.118Z,63.09
2023-03-16T22:33:55.341Z,63.30
2023-03-16T22:36:39.229Z,63.38
2023-03-16T22:43:20.178Z,63.77
2023-03-16T22:46:15.091Z,63.99
2023-03-16T22:49:02.298Z,64.19
2023-03-16T22:51:40.873Z,64.31
2023-03-16T22:54:32.801Z,64.42
2023-03-16T22:57:27.675Z,64.49
2023-03-16T23:00:36.077Z,64.56
2023-03-16T23:03:36.394Z,64.76
2023-03-16T23:06:26.185Z,64.94
2023-03-16T23:09:20.507Z,64.85
2023-03-16T23:12:03.637Z,64.77
2023-03-16T23:14:38.253Z,64.67
2023-03-16T23:17:24.893Z,64.58
2023-03-16T23:20:00.487Z,64.77
2023-03-16T23:22:33.981Z,65.02
2023-03-16T23:25:05.756Z,65.07
2023-03-16T23:27:42.637Z,65.13
2023-03-16T23:30:32.948Z,65.34
2023-03-16T23:33:12.396Z,65.44
2023-03-16T23:35:51.045Z,65.42
2023-03-16T23:38:22.891Z,65.30
2023-03-16T23:40:56.574Z,65.46
2023-03-16T23:43:30.713Z,65.55
2023-03-16T23:46:06.745Z,65.40
2023-03-16T23:48:53.768Z,65.23
2023-03-16T23:51:35.698Z,65.33
2023-03-16T23:54:29.536Z,65.45
2023-03-16T23:57:04.289Z,65.59
2023-03-16T23:59:32.689Z,65.58
